sensor_id;sensor_type;location;lat;lon;timestamp;P1;durP1;ratioP1;P2;durP2;ratioP2
3307;SDS011;1666;48.898;9.182;2023-04-07T00:02:02;19.65;;;11.35;;
3307;SDS011;1666;48.898;9.182;2023-04-07T00:04:35;17.67;;;10.48;;
3307;SDS011;1666;48.898;9.182;2023-04-07T00:07:05;17.67;;;10.63;;
3307;SDS011;1666;48.898;9.182;2023-04-07T00:09:35;15.73;;;10.32;;
3307;SDS011;1666;48.898;9.182;2023-04-07T00:12:05;17.27;;;10.52;;
3307;SDS011;1666;48.898;9.182;2023-04-07T00:14:34;15.80;;;10.18;;
3307;SDS011;1666;48.898;9.182;2023-04-07T00:17:04;17.52;;;11.07;;
3307;SDS011;1666;48.898;9.182;2023-04-07T00:19:37;14.38;;;9.73;;
3307;SDS011;1666;48.898;9.182;2023-04-07T00:22:07;17.38;;;10.35;;
3307;SDS011;1666;48.898;9.182;2023-04-07T00:24:37;18.50;;;10.07;;
3307;SDS011;1666;48.898;9.182;2023-04-07T00:27:06;15.93;;;10.02;;
3307;SDS011;1666;48.898;9.182;2023-04-07T00:29:36;16.60;;;11.27;;
3307;SDS011;1666;48.898;9.182;2023-04-07T00:32:06;15.20;;;9.73;;
3307;SDS011;1666;48.898;9.182;2023-04-07T00:34:39;14.25;;;9.40;;
3307;SDS011;1666;48.898;9.182;2023-04-07T00:37:09;14.55;;;9.48;;
3307;SDS011;1666;48.898;9.182;2023-04-07T00:39:39;16.13;;;9.90;;
3307;SDS011;1666;48.898;9.182;2023-04-07T00:42:09;13.93;;;9.25;;
3307;SDS011;1666;48.898;9.182;2023-04-07T00:44:39;14.45;;;8.82;;
3307;SDS011;1666;48.898;9.182;2023-04-07T00:47:09;14.90;;;9.38;;
3307;SDS011;1666;48.898;9.182;2023-04-07T00:49:42;13.10;;;8.93;;
3307;SDS011;1666;48.898;9.182;2023-04-07T00:52:12;14.18;;;9.32;;
3307;SDS011;1666;48.898;9.182;2023-04-07T00:54:42;13.18;;;9.30;;
3307;SDS011;1666;48.898;9.182;2023-04-07T00:57:14;13.35;;;9.02;;
3307;SDS011;1666;48.898;9.182;2023-04-07T00:59:44;14.60;;;8.63;;
3307;SDS011;1666;48.898;9.182;2023-04-07T01:02:15;13.07;;;8.77;;
3307;SDS011;1666;48.898;9.182;2023-04-07T01:04:53;13.82;;;8.52;;
3307;SDS011;1666;48.898;9.182;2023-04-07T01:07:43;13.73;;;9.27;;
3307;SDS011;1666;48.898;9.182;2023-04-07T01:10:24;12.52;;;8.35;;
3307;SDS011;1666;48.898;9.182;2023-04-07T01:13:00;14.75;;;9.07;;
3307;SDS011;1666;48.898;9.182;2023-04-07T01:15:34;15.20;;;9.13;;
3307;SDS011;1666;48.898;9.182;2023-04-07T01:18:07;12.70;;;8.27;;
3307;SDS011;1666;48.898;9.182;2023-04-07T01:20:44;15.45;;;9.30;;
3307;SDS011;1666;48.898;9.182;2023-04-07T01:23:20;12.63;;;8.60;;
3307;SDS011;1666;48.898;9.182;2023-04-07T01:26:03;12.10;;;8.60;;
3307;SDS011;1666;48.898;9.182;2023-04-07T01:28:47;13.18;;;8.70;;
3307;SDS011;1666;48.898;9.182;2023-04-07T01:31:28;13.40;;;9.35;;
3307;SDS011;1666;48.898;9.182;2023-04-07T01:33:59;13.20;;;8.18;;
3307;SDS011;1666;48.898;9.182;2023-04-07T01:36:31;12.75;;;8.48;;
3307;SDS011;1666;48.898;9.182;2023-04-07T01:39:02;15.60;;;8.95;;
3307;SDS011;1666;48.898;9.182;2023-04-07T01:41:32;12.77;;;8.35;;
3307;SDS011;1666;48.898;9.182;2023-04-07T01:44:02;11.88;;;7.45;;
3307;SDS011;1666;48.898;9.182;2023-04-07T01:46:37;15.85;;;7.97;;
3307;SDS011;1666;48.898;9.182;2023-04-07T01:49:07;13.35;;;8.20;;
3307;SDS011;1666;48.898;9.182;2023-04-07T01:51:37;14.23;;;8.50;;
3307;SDS011;1666;48.898;9.182;2023-04-07T01:54:08;13.85;;;8.25;;
3307;SDS011;1666;48.898;9.182;2023-04-07T01:56:38;14.77;;;8.95;;
3307;SDS011;1666;48.898;9.182;2023-04-07T01:59:08;13.45;;;8.57;;
3307;SDS011;1666;48.898;9.182;2023-04-07T02:01:41;14.45;;;9.15;;
3307;SDS011;1666;48.898;9.182;2023-04-07T02:04:11;14.18;;;8.38;;
3307;SDS011;1666;48.898;9.182;2023-04-07T02:06:50;15.68;;;9.13;;
3307;SDS011;1666;48.898;9.182;2023-04-07T02:09:23;12.90;;;8.30;;
3307;SDS011;1666;48.898;9.182;2023-04-07T02:11:59;12.80;;;8.63;;
3307;SDS011;1666;48.898;9.182;2023-04-07T02:14:30;15.65;;;9.13;;
3307;SDS011;1666;48.898;9.182;2023-04-07T02:17:04;12.48;;;8.20;;
3307;SDS011;1666;48.898;9.182;2023-04-07T02:19:35;11.25;;;7.68;;
3307;SDS011;1666;48.898;9.182;2023-04-07T02:22:05;14.15;;;8.63;;
3307;SDS011;1666;48.898;9.182;2023-04-07T02:24:35;14.15;;;8.30;;
3307;SDS011;1666;48.898;9.182;2023-04-07T02:27:09;13.68;;;8.45;;
3307;SDS011;1666;48.898;9.182;2023-04-07T02:29:39;13.85;;;8.57;;
3307;SDS011;1666;48.898;9.182;2023-04-07T02:32:12;11.63;;;8.50;;
3307;SDS011;1666;48.898;9.182;2023-04-07T02:34:43;13.15;;;8.18;;
3307;SDS011;1666;48.898;9.182;2023-04-07T02:37:13;14.35;;;8.75;;
3307;SDS011;1666;48.898;9.182;2023-04-07T02:39:43;14.07;;;8.73;;
3307;SDS011;1666;48.898;9.182;2023-04-07T02:42:12;13.35;;;8.75;;
3307;SDS011;1666;48.898;9.182;2023-04-07T02:44:42;13.40;;;8.55;;
3307;SDS011;1666;48.898;9.182;2023-04-07T02:47:15;10.88;;;7.80;;
3307;SDS011;1666;48.898;9.182;2023-04-07T02:49:45;13.48;;;8.00;;
3307;SDS011;1666;48.898;9.182;2023-04-07T02:52:15;12.30;;;8.23;;
3307;SDS011;1666;48.898;9.182;2023-04-07T02:54:44;13.68;;;8.80;;
3307;SDS011;1666;48.898;9.182;2023-04-07T02:57:14;12.80;;;9.02;;
3307;SDS011;1666;48.898;9.182;2023-04-07T02:59:44;10.95;;;7.75;;
3307;SDS011;1666;48.898;9.182;2023-04-07T03:02:17;14.60;;;9.40;;
3307;SDS011;1666;48.898;9.182;2023-04-07T03:04:47;13.35;;;8.40;;
3307;SDS011;1666;48.898;9.182;2023-04-07T03:07:17;13.98;;;9.05;;
3307;SDS011;1666;48.898;9.182;2023-04-07T03:09:47;14.35;;;9.02;;
3307;SDS011;1666;48.898;9.182;2023-04-07T03:12:17;14.32;;;8.57;;
3307;SDS011;1666;48.898;9.182;2023-04-07T03:14:47;13.00;;;8.90;;
3307;SDS011;1666;48.898;9.182;2023-04-07T03:17:19;14.43;;;8.77;;
3307;SDS011;1666;48.898;9.182;2023-04-07T03:19:49;15.40;;;8.93;;
3307;SDS011;1666;48.898;9.182;2023-04-07T03:22:19;14.60;;;8.73;;
3307;SDS011;1666;48.898;9.182;2023-04-07T03:24:49;12.48;;;8.40;;
3307;SDS011;1666;48.898;9.182;2023-04-07T03:27:19;13.55;;;8.75;;
3307;SDS011;1666;48.898;9.182;2023-04-07T03:29:49;15.02;;;9.35;;
3307;SDS011;1666;48.898;9.182;2023-04-07T03:32:21;16.35;;;9.00;;
3307;SDS011;1666;48.898;9.182;2023-04-07T03:34:51;14.60;;;8.90;;
3307;SDS011;1666;48.898;9.182;2023-04-07T03:37:21;13.13;;;8.52;;
3307;SDS011;1666;48.898;9.182;2023-04-07T03:39:51;13.75;;;9.02;;
3307;SDS011;1666;48.898;9.182;2023-04-07T03:42:21;13.48;;;8.48;;
3307;SDS011;1666;48.898;9.182;2023-04-07T03:44:51;15.68;;;9.40;;
3307;SDS011;1666;48.898;9.182;2023-04-07T03:47:24;14.48;;;10.55;;
3307;SDS011;1666;48.898;9.182;2023-04-07T03:49:54;13.60;;;9.00;;
3307;SDS011;1666;48.898;9.182;2023-04-07T03:52:24;15.80;;;10.00;;
3307;SDS011;1666;48.898;9.182;2023-04-07T03:54:54;14.18;;;9.30;;
3307;SDS011;1666;48.898;9.182;2023-04-07T03:57:24;15.23;;;8.93;;
3307;SDS011;1666;48.898;9.182;2023-04-07T03:59:54;13.30;;;8.60;;
3307;SDS011;1666;48.898;9.182;2023-04-07T04:02:26;14.68;;;9.18;;
3307;SDS011;1666;48.898;9.182;2023-04-07T04:04:56;14.15;;;8.80;;
3307;SDS011;1666;48.898;9.182;2023-04-07T04:07:26;14.50;;;8.57;;
3307;SDS011;1666;48.898;9.182;2023-04-07T04:09:56;16.50;;;10.10;;
3307;SDS011;1666;48.898;9.182;2023-04-07T04:12:26;13.88;;;9.02;;
3307;SDS011;1666;48.898;9.182;2023-04-07T04:14:56;13.95;;;9.13;;
3307;SDS011;1666;48.898;9.182;2023-04-07T04:17:29;13.60;;;9.10;;
3307;SDS011;1666;48.898;9.182;2023-04-07T04:19:59;13.82;;;9.18;;
3307;SDS011;1666;48.898;9.182;2023-04-07T04:22:29;14.57;;;9.45;;
3307;SDS011;1666;48.898;9.182;2023-04-07T04:24:59;16.38;;;9.93;;
3307;SDS011;1666;48.898;9.182;2023-04-07T04:27:29;16.02;;;9.65;;
3307;SDS011;1666;48.898;9.182;2023-04-07T04:29:58;17.58;;;10.05;;
3307;SDS011;1666;48.898;9.182;2023-04-07T04:32:31;14.65;;;9.75;;
3307;SDS011;1666;48.898;9.182;2023-04-07T04:35:01;15.52;;;9.00;;
3307;SDS011;1666;48.898;9.182;2023-04-07T04:37:32;15.65;;;9.80;;
3307;SDS011;1666;48.898;9.182;2023-04-07T04:40:02;17.00;;;9.73;;
3307;SDS011;1666;48.898;9.182;2023-04-07T04:42:34;13.68;;;8.80;;
3307;SDS011;1666;48.898;9.182;2023-04-07T04:45:04;16.73;;;9.93;;
3307;SDS011;1666;48.898;9.182;2023-04-07T04:47:38;13.82;;;9.18;;
3307;SDS011;1666;48.898;9.182;2023-04-07T04:50:09;18.13;;;10.35;;
3307;SDS011;1666;48.898;9.182;2023-04-07T04:52:39;13.68;;;8.93;;
3307;SDS011;1666;48.898;9.182;2023-04-07T04:55:10;14.80;;;9.95;;
3307;SDS011;1666;48.898;9.182;2023-04-07T04:57:40;14.75;;;9.52;;
3307;SDS011;1666;48.898;9.182;2023-04-07T05:00:11;13.65;;;8.93;;
3307;SDS011;1666;48.898;9.182;2023-04-07T05:02:44;16.55;;;9.85;;
3307;SDS011;1666;48.898;9.182;2023-04-07T05:05:15;13.90;;;9.20;;
3307;SDS011;1666;48.898;9.182;2023-04-07T05:07:45;15.15;;;9.88;;
3307;SDS011;1666;48.898;9.182;2023-04-07T05:10:15;14.88;;;9.57;;
3307;SDS011;1666;48.898;9.182;2023-04-07T05:12:45;16.38;;;9.60;;
3307;SDS011;1666;48.898;9.182;2023-04-07T05:15:15;17.55;;;9.93;;
3307;SDS011;1666;48.898;9.182;2023-04-07T05:17:47;15.20;;;9.38;;
3307;SDS011;1666;48.898;9.182;2023-04-07T05:20:17;15.75;;;9.30;;
3307;SDS011;1666;48.898;9.182;2023-04-07T05:22:47;16.88;;;9.57;;
3307;SDS011;1666;48.898;9.182;2023-04-07T05:25:17;15.05;;;9.40;;
3307;SDS011;1666;48.898;9.182;2023-04-07T05:27:47;15.90;;;9.55;;
3307;SDS011;1666;48.898;9.182;2023-04-07T05:30:17;15.40;;;9.75;;
3307;SDS011;1666;48.898;9.182;2023-04-07T05:32:51;14.82;;;8.80;;
3307;SDS011;1666;48.898;9.182;2023-04-07T05:35:21;14.45;;;9.93;;
3307;SDS011;1666;48.898;9.182;2023-04-07T05:37:51;15.18;;;10.00;;
3307;SDS011;1666;48.898;9.182;2023-04-07T05:40:21;16.35;;;9.63;;
3307;SDS011;1666;48.898;9.182;2023-04-07T05:42:51;13.82;;;9.38;;
3307;SDS011;1666;48.898;9.182;2023-04-07T05:45:22;14.35;;;9.90;;
3307;SDS011;1666;48.898;9.182;2023-04-07T05:47:54;15.85;;;9.07;;
3307;SDS011;1666;48.898;9.182;2023-04-07T05:50:24;17.00;;;9.85;;
3307;SDS011;1666;48.898;9.182;2023-04-07T05:52:54;16.08;;;9.93;;
3307;SDS011;1666;48.898;9.182;2023-04-07T05:55:24;13.38;;;9.07;;
3307;SDS011;1666;48.898;9.182;2023-04-07T05:57:54;16.02;;;9.35;;
3307;SDS011;1666;48.898;9.182;2023-04-07T06:00:24;15.23;;;8.80;;
3307;SDS011;1666;48.898;9.182;2023-04-07T06:02:56;13.40;;;8.98;;
3307;SDS011;1666;48.898;9.182;2023-04-07T06:05:27;14.20;;;9.75;;
3307;SDS011;1666;48.898;9.182;2023-04-07T06:07:57;13.80;;;9.60;;
3307;SDS011;1666;48.898;9.182;2023-04-07T06:10:27;19.02;;;10.00;;
3307;SDS011;1666;48.898;9.182;2023-04-07T06:12:57;13.43;;;9.15;;
3307;SDS011;1666;48.898;9.182;2023-04-07T06:15:27;13.40;;;9.05;;
3307;SDS011;1666;48.898;9.182;2023-04-07T06:18:00;13.05;;;9.45;;
3307;SDS011;1666;48.898;9.182;2023-04-07T06:20:30;12.95;;;9.23;;
3307;SDS011;1666;48.898;9.182;2023-04-07T06:22:59;14.60;;;9.48;;
3307;SDS011;1666;48.898;9.182;2023-04-07T06:25:29;14.52;;;9.25;;
3307;SDS011;1666;48.898;9.182;2023-04-07T06:27:59;13.82;;;9.35;;
3307;SDS011;1666;48.898;9.182;2023-04-07T06:30:29;15.27;;;9.70;;
3307;SDS011;1666;48.898;9.182;2023-04-07T06:33:01;14.75;;;9.75;;
3307;SDS011;1666;48.898;9.182;2023-04-07T06:35:32;15.05;;;9.35;;
3307;SDS011;1666;48.898;9.182;2023-04-07T06:38:02;14.65;;;9.25;;
3307;SDS011;1666;48.898;9.182;2023-04-07T06:40:32;15.82;;;9.68;;
3307;SDS011;1666;48.898;9.182;2023-04-07T06:43:02;14.15;;;9.57;;
3307;SDS011;1666;48.898;9.182;2023-04-07T06:45:32;15.52;;;9.50;;
3307;SDS011;1666;48.898;9.182;2023-04-07T06:48:05;13.95;;;9.55;;
3307;SDS011;1666;48.898;9.182;2023-04-07T06:50:36;14.43;;;8.23;;
3307;SDS011;1666;48.898;9.182;2023-04-07T06:53:07;15.05;;;9.65;;
3307;SDS011;1666;48.898;9.182;2023-04-07T06:55:36;17.95;;;9.95;;
3307;SDS011;1666;48.898;9.182;2023-04-07T06:58:07;16.10;;;10.27;;
3307;SDS011;1666;48.898;9.182;2023-04-07T07:00:37;13.13;;;9.30;;
3307;SDS011;1666;48.898;9.182;2023-04-07T07:03:12;14.82;;;9.23;;
3307;SDS011;1666;48.898;9.182;2023-04-07T07:05:42;20.63;;;10.38;;
3307;SDS011;1666;48.898;9.182;2023-04-07T07:08:14;13.52;;;8.73;;
3307;SDS011;1666;48.898;9.182;2023-04-07T07:10:44;18.02;;;10.15;;
3307;SDS011;1666;48.898;9.182;2023-04-07T07:13:14;14.10;;;9.70;;
3307;SDS011;1666;48.898;9.182;2023-04-07T07:15:44;15.27;;;10.63;;
3307;SDS011;1666;48.898;9.182;2023-04-07T07:18:17;14.90;;;9.98;;
3307;SDS011;1666;48.898;9.182;2023-04-07T07:20:47;16.88;;;9.98;;
3307;SDS011;1666;48.898;9.182;2023-04-07T07:23:17;16.55;;;9.95;;
3307;SDS011;1666;48.898;9.182;2023-04-07T07:25:47;14.40;;;10.32;;
3307;SDS011;1666;48.898;9.182;2023-04-07T07:28:17;14.98;;;9.65;;
3307;SDS011;1666;48.898;9.182;2023-04-07T07:30:47;16.20;;;10.18;;
3307;SDS011;1666;48.898;9.182;2023-04-07T07:33:20;14.48;;;10.27;;
3307;SDS011;1666;48.898;9.182;2023-04-07T07:35:50;13.82;;;9.73;;
3307;SDS011;1666;48.898;9.182;2023-04-07T07:38:20;14.60;;;9.23;;
3307;SDS011;1666;48.898;9.182;2023-04-07T07:40:53;15.63;;;9.65;;
3307;SDS011;1666;48.898;9.182;2023-04-07T07:43:22;14.30;;;9.18;;
3307;SDS011;1666;48.898;9.182;2023-04-07T07:45:53;12.50;;;8.60;;
3307;SDS011;1666;48.898;9.182;2023-04-07T07:48:25;14.48;;;9.75;;
3307;SDS011;1666;48.898;9.182;2023-04-07T07:50:55;14.25;;;10.13;;
3307;SDS011;1666;48.898;9.182;2023-04-07T07:53:25;12.48;;;8.43;;
3307;SDS011;1666;48.898;9.182;2023-04-07T07:55:55;12.25;;;8.57;;
3307;SDS011;1666;48.898;9.182;2023-04-07T07:58:26;14.13;;;9.40;;
3307;SDS011;1666;48.898;9.182;2023-04-07T08:00:55;13.80;;;8.52;;
3307;SDS011;1666;48.898;9.182;2023-04-07T08:03:28;10.25;;;7.95;;
3307;SDS011;1666;48.898;9.182;2023-04-07T08:05:58;13.82;;;8.40;;
3307;SDS011;1666;48.898;9.182;2023-04-07T08:08:28;10.85;;;8.25;;
3307;SDS011;1666;48.898;9.182;2023-04-07T08:10:58;12.27;;;7.95;;
3307;SDS011;1666;48.898;9.182;2023-04-07T08:13:28;11.65;;;8.02;;
3307;SDS011;1666;48.898;9.182;2023-04-07T08:15:58;11.10;;;8.15;;
3307;SDS011;1666;48.898;9.182;2023-04-07T08:18:31;10.98;;;7.50;;
3307;SDS011;1666;48.898;9.182;2023-04-07T08:21:02;10.68;;;7.25;;
3307;SDS011;1666;48.898;9.182;2023-04-07T08:23:32;9.95;;;6.93;;
3307;SDS011;1666;48.898;9.182;2023-04-07T08:26:02;10.10;;;6.85;;
3307;SDS011;1666;48.898;9.182;2023-04-07T08:28:32;9.73;;;7.53;;
3307;SDS011;1666;48.898;9.182;2023-04-07T08:31:02;10.68;;;8.05;;
3307;SDS011;1666;48.898;9.182;2023-04-07T08:33:35;9.52;;;7.13;;
3307;SDS011;1666;48.898;9.182;2023-04-07T08:36:05;10.35;;;6.60;;
3307;SDS011;1666;48.898;9.182;2023-04-07T08:38:35;12.52;;;7.90;;
3307;SDS011;1666;48.898;9.182;2023-04-07T08:41:06;9.70;;;7.05;;
3307;SDS011;1666;48.898;9.182;2023-04-07T08:43:39;9.45;;;7.47;;
3307;SDS011;1666;48.898;9.182;2023-04-07T08:46:13;12.13;;;7.22;;
3307;SDS011;1666;48.898;9.182;2023-04-07T08:48:46;9.90;;;7.55;;
3307;SDS011;1666;48.898;9.182;2023-04-07T08:51:21;11.82;;;7.38;;
3307;SDS011;1666;48.898;9.182;2023-04-07T08:53:59;9.35;;;7.47;;
3307;SDS011;1666;48.898;9.182;2023-04-07T08:56:34;10.65;;;7.57;;
3307;SDS011;1666;48.898;9.182;2023-04-07T08:59:07;10.23;;;7.30;;
3307;SDS011;1666;48.898;9.182;2023-04-07T09:01:38;8.48;;;6.97;;
3307;SDS011;1666;48.898;9.182;2023-04-07T09:04:11;11.50;;;7.15;;
3307;SDS011;1666;48.898;9.182;2023-04-07T09:06:42;10.75;;;6.97;;
3307;SDS011;1666;48.898;9.182;2023-04-07T09:09:12;10.07;;;6.85;;
3307;SDS011;1666;48.898;9.182;2023-04-07T09:11:42;9.38;;;6.82;;
3307;SDS011;1666;48.898;9.182;2023-04-07T09:14:12;9.57;;;6.18;;
3307;SDS011;1666;48.898;9.182;2023-04-07T09:16:44;8.73;;;6.32;;
3307;SDS011;1666;48.898;9.182;2023-04-07T09:19:17;9.27;;;6.30;;
3307;SDS011;1666;48.898;9.182;2023-04-07T09:21:47;9.80;;;6.80;;
3307;SDS011;1666;48.898;9.182;2023-04-07T09:24:21;8.75;;;6.32;;
3307;SDS011;1666;48.898;9.182;2023-04-07T09:29:46;8.57;;;6.18;;
3307;SDS011;1666;48.898;9.182;2023-04-07T09:32:21;13.82;;;6.63;;
3307;SDS011;1666;48.898;9.182;2023-04-07T09:35:07;11.30;;;6.38;;
3307;SDS011;1666;48.898;9.182;2023-04-07T09:37:37;9.10;;;5.70;;
3307;SDS011;1666;48.898;9.182;2023-04-07T09:40:08;9.05;;;5.68;;
3307;SDS011;1666;48.898;9.182;2023-04-07T09:42:44;10.73;;;6.28;;
3307;SDS011;1666;48.898;9.182;2023-04-07T09:45:22;9.90;;;6.28;;
3307;SDS011;1666;48.898;9.182;2023-04-07T09:48:04;9.85;;;6.35;;
3307;SDS011;1666;48.898;9.182;2023-04-07T09:50:40;7.68;;;6.30;;
3307;SDS011;1666;48.898;9.182;2023-04-07T09:53:14;10.95;;;6.05;;
3307;SDS011;1666;48.898;9.182;2023-04-07T09:55:45;11.55;;;6.82;;
3307;SDS011;1666;48.898;9.182;2023-04-07T09:58:16;10.93;;;6.35;;
3307;SDS011;1666;48.898;9.182;2023-04-07T10:00:46;8.15;;;6.38;;
3307;SDS011;1666;48.898;9.182;2023-04-07T10:03:16;10.38;;;6.18;;
3307;SDS011;1666;48.898;9.182;2023-04-07T10:05:49;10.52;;;6.13;;
3307;SDS011;1666;48.898;9.182;2023-04-07T10:08:20;14.02;;;6.82;;
3307;SDS011;1666;48.898;9.182;2023-04-07T10:10:50;8.85;;;5.72;;
3307;SDS011;1666;48.898;9.182;2023-04-07T10:13:21;7.00;;;5.07;;
3307;SDS011;1666;48.898;9.182;2023-04-07T10:15:52;7.80;;;5.25;;
3307;SDS011;1666;48.898;9.182;2023-04-07T10:18:24;8.65;;;5.10;;
3307;SDS011;1666;48.898;9.182;2023-04-07T10:21:00;8.27;;;6.22;;
3307;SDS011;1666;48.898;9.182;2023-04-07T10:23:43;8.70;;;5.93;;
3307;SDS011;1666;48.898;9.182;2023-04-07T10:26:20;10.15;;;6.28;;
3307;SDS011;1666;48.898;9.182;2023-04-07T10:28:56;10.25;;;5.72;;
3307;SDS011;1666;48.898;9.182;2023-04-07T10:31:30;9.65;;;5.80;;
3307;SDS011;1666;48.898;9.182;2023-04-07T10:34:01;9.57;;;5.93;;
3307;SDS011;1666;48.898;9.182;2023-04-07T10:36:34;11.80;;;6.20;;
3307;SDS011;1666;48.898;9.182;2023-04-07T10:41:50;11.13;;;6.45;;
3307;SDS011;1666;48.898;9.182;2023-04-07T10:47:16;10.90;;;6.35;;
3307;SDS011;1666;48.898;9.182;2023-04-07T10:52:46;6.90;;;5.65;;
3307;SDS011;1666;48.898;9.182;2023-04-07T10:55:27;10.93;;;5.93;;
3307;SDS011;1666;48.898;9.182;2023-04-07T11:03:53;10.23;;;6.68;;
3307;SDS011;1666;48.898;9.182;2023-04-07T11:06:27;9.25;;;6.60;;
3307;SDS011;1666;48.898;9.182;2023-04-07T11:09:00;9.40;;;6.50;;
3307;SDS011;1666;48.898;9.182;2023-04-07T11:11:34;6.90;;;5.68;;
3307;SDS011;1666;48.898;9.182;2023-04-07T11:14:06;9.52;;;5.63;;
3307;SDS011;1666;48.898;9.182;2023-04-07T11:16:37;6.80;;;5.40;;
3307;SDS011;1666;48.898;9.182;2023-04-07T11:19:11;10.40;;;5.07;;
3307;SDS011;1666;48.898;9.182;2023-04-07T11:21:41;9.82;;;5.78;;
3307;SDS011;1666;48.898;9.182;2023-04-07T11:27:04;12.48;;;5.80;;
3307;SDS011;1666;48.898;9.182;2023-04-07T11:29:40;8.18;;;5.63;;
3307;SDS011;1666;48.898;9.182;2023-04-07T11:32:11;7.78;;;5.82;;
3307;SDS011;1666;48.898;9.182;2023-04-07T11:34:42;8.85;;;6.05;;
3307;SDS011;1666;48.898;9.182;2023-04-07T11:37:18;8.68;;;5.82;;
3307;SDS011;1666;48.898;9.182;2023-04-07T11:39:53;8.00;;;5.85;;
3307;SDS011;1666;48.898;9.182;2023-04-07T11:42:30;8.27;;;4.97;;
3307;SDS011;1666;48.898;9.182;2023-04-07T11:45:01;6.70;;;4.82;;
3307;SDS011;1666;48.898;9.182;2023-04-07T11:47:33;7.13;;;5.07;;
3307;SDS011;1666;48.898;9.182;2023-04-07T11:50:05;5.97;;;4.45;;
3307;SDS011;1666;48.898;9.182;2023-04-07T11:52:41;10.35;;;5.53;;
3307;SDS011;1666;48.898;9.182;2023-04-07T11:55:20;7.22;;;5.07;;
3307;SDS011;1666;48.898;9.182;2023-04-07T11:57:50;9.48;;;4.35;;
3307;SDS011;1666;48.898;9.182;2023-04-07T12:00:21;11.85;;;5.68;;
3307;SDS011;1666;48.898;9.182;2023-04-07T12:02:51;11.38;;;5.75;;
3307;SDS011;1666;48.898;9.182;2023-04-07T12:05:22;8.77;;;5.40;;
3307;SDS011;1666;48.898;9.182;2023-04-07T12:07:52;7.10;;;4.30;;
3307;SDS011;1666;48.898;9.182;2023-04-07T12:10:26;7.28;;;5.22;;
3307;SDS011;1666;48.898;9.182;2023-04-07T12:12:55;5.40;;;3.97;;
3307;SDS011;1666;48.898;9.182;2023-04-07T12:15:26;8.25;;;4.90;;
3307;SDS011;1666;48.898;9.182;2023-04-07T12:17:56;12.75;;;7.85;;
3307;SDS011;1666;48.898;9.182;2023-04-07T12:20:26;4.50;;;3.33;;
3307;SDS011;1666;48.898;9.182;2023-04-07T12:22:56;8.95;;;4.93;;
3307;SDS011;1666;48.898;9.182;2023-04-07T12:25:28;4.50;;;3.03;;
3307;SDS011;1666;48.898;9.182;2023-04-07T12:27:58;7.72;;;3.40;;
3307;SDS011;1666;48.898;9.182;2023-04-07T12:30:28;5.50;;;3.20;;
3307;SDS011;1666;48.898;9.182;2023-04-07T12:32:58;6.13;;;3.28;;
3307;SDS011;1666;48.898;9.182;2023-04-07T12:35:29;6.50;;;3.00;;
3307;SDS011;1666;48.898;9.182;2023-04-07T12:37:59;3.92;;;2.75;;
3307;SDS011;1666;48.898;9.182;2023-04-07T12:40:31;4.82;;;2.95;;
3307;SDS011;1666;48.898;9.182;2023-04-07T12:43:01;5.55;;;2.83;;
3307;SDS011;1666;48.898;9.182;2023-04-07T12:45:31;4.43;;;2.78;;
3307;SDS011;1666;48.898;9.182;2023-04-07T12:48:02;5.18;;;3.05;;
3307;SDS011;1666;48.898;9.182;2023-04-07T12:50:32;6.15;;;3.35;;
3307;SDS011;1666;48.898;9.182;2023-04-07T12:53:04;6.03;;;3.33;;
3307;SDS011;1666;48.898;9.182;2023-04-07T12:55:37;5.85;;;3.78;;
3307;SDS011;1666;48.898;9.182;2023-04-07T12:58:07;5.07;;;3.88;;
3307;SDS011;1666;48.898;9.182;2023-04-07T13:00:37;6.57;;;4.50;;
3307;SDS011;1666;48.898;9.182;2023-04-07T13:03:08;6.25;;;4.40;;
3307;SDS011;1666;48.898;9.182;2023-04-07T13:05:38;5.80;;;4.35;;
3307;SDS011;1666;48.898;9.182;2023-04-07T13:08:08;5.43;;;4.22;;
3307;SDS011;1666;48.898;9.182;2023-04-07T13:10:40;5.43;;;4.40;;
3307;SDS011;1666;48.898;9.182;2023-04-07T13:13:10;6.90;;;4.63;;
3307;SDS011;1666;48.898;9.182;2023-04-07T13:15:40;6.50;;;4.93;;
3307;SDS011;1666;48.898;9.182;2023-04-07T13:18:10;8.07;;;4.78;;
3307;SDS011;1666;48.898;9.182;2023-04-07T13:20:40;8.55;;;4.72;;
3307;SDS011;1666;48.898;9.182;2023-04-07T13:23:29;6.63;;;4.43;;
3307;SDS011;1666;48.898;9.182;2023-04-07T13:26:17;6.65;;;4.63;;
3307;SDS011;1666;48.898;9.182;2023-04-07T13:28:47;6.10;;;4.68;;
3307;SDS011;1666;48.898;9.182;2023-04-07T13:31:17;5.68;;;3.53;;
3307;SDS011;1666;48.898;9.182;2023-04-07T13:33:49;6.07;;;3.83;;
3307;SDS011;1666;48.898;9.182;2023-04-07T13:36:19;5.97;;;3.80;;
3307;SDS011;1666;48.898;9.182;2023-04-07T13:38:49;6.70;;;3.90;;
3307;SDS011;1666;48.898;9.182;2023-04-07T13:41:21;6.43;;;3.75;;
3307;SDS011;1666;48.898;9.182;2023-04-07T13:43:52;4.82;;;3.90;;
3307;SDS011;1666;48.898;9.182;2023-04-07T13:46:22;5.95;;;4.15;;
3307;SDS011;1666;48.898;9.182;2023-04-07T13:48:54;6.50;;;4.15;;
3307;SDS011;1666;48.898;9.182;2023-04-07T13:51:24;6.40;;;3.97;;
3307;SDS011;1666;48.898;9.182;2023-04-07T13:53:54;5.18;;;3.95;;
3307;SDS011;1666;48.898;9.182;2023-04-07T13:56:27;5.68;;;4.10;;
3307;SDS011;1666;48.898;9.182;2023-04-07T13:58:57;7.43;;;4.38;;
3307;SDS011;1666;48.898;9.182;2023-04-07T14:01:27;6.53;;;4.32;;
3307;SDS011;1666;48.898;9.182;2023-04-07T14:03:57;6.85;;;4.15;;
3307;SDS011;1666;48.898;9.182;2023-04-07T14:06:27;7.28;;;4.68;;
3307;SDS011;1666;48.898;9.182;2023-04-07T14:08:57;6.68;;;4.10;;
3307;SDS011;1666;48.898;9.182;2023-04-07T14:11:30;8.50;;;4.75;;
3307;SDS011;1666;48.898;9.182;2023-04-07T14:14:00;8.77;;;4.47;;
3307;SDS011;1666;48.898;9.182;2023-04-07T14:16:30;6.18;;;4.50;;
3307;SDS011;1666;48.898;9.182;2023-04-07T14:19:00;9.20;;;4.82;;
3307;SDS011;1666;48.898;9.182;2023-04-07T14:21:30;7.15;;;4.47;;
3307;SDS011;1666;48.898;9.182;2023-04-07T14:24:00;5.85;;;4.38;;
3307;SDS011;1666;48.898;9.182;2023-04-07T14:26:32;8.30;;;4.38;;
3307;SDS011;1666;48.898;9.182;2023-04-07T14:29:02;5.43;;;4.50;;
3307;SDS011;1666;48.898;9.182;2023-04-07T14:31:32;5.25;;;4.05;;
3307;SDS011;1666;48.898;9.182;2023-04-07T14:34:02;5.55;;;3.92;;
3307;SDS011;1666;48.898;9.182;2023-04-07T14:36:32;6.25;;;4.78;;
3307;SDS011;1666;48.898;9.182;2023-04-07T14:39:02;9.95;;;4.70;;
3307;SDS011;1666;48.898;9.182;2023-04-07T14:41:35;7.22;;;4.88;;
3307;SDS011;1666;48.898;9.182;2023-04-07T14:44:05;6.88;;;4.03;;
3307;SDS011;1666;48.898;9.182;2023-04-07T14:46:34;6.30;;;3.75;;
3307;SDS011;1666;48.898;9.182;2023-04-07T14:49:04;6.22;;;3.63;;
3307;SDS011;1666;48.898;9.182;2023-04-07T14:51:34;5.47;;;3.90;;
3307;SDS011;1666;48.898;9.182;2023-04-07T14:54:05;9.23;;;3.72;;
3307;SDS011;1666;48.898;9.182;2023-04-07T14:56:37;4.90;;;3.45;;
3307;SDS011;1666;48.898;9.182;2023-04-07T14:59:07;4.50;;;2.90;;
3307;SDS011;1666;48.898;9.182;2023-04-07T15:01:37;3.47;;;2.80;;
3307;SDS011;1666;48.898;9.182;2023-04-07T15:04:07;4.60;;;2.65;;
3307;SDS011;1666;48.898;9.182;2023-04-07T15:06:39;4.22;;;2.70;;
3307;SDS011;1666;48.898;9.182;2023-04-07T15:09:11;5.20;;;3.17;;
3307;SDS011;1666;48.898;9.182;2023-04-07T15:11:43;3.83;;;2.60;;
3307;SDS011;1666;48.898;9.182;2023-04-07T15:14:13;5.15;;;2.75;;
3307;SDS011;1666;48.898;9.182;2023-04-07T15:16:43;5.55;;;2.75;;
3307;SDS011;1666;48.898;9.182;2023-04-07T15:19:15;5.93;;;2.83;;
3307;SDS011;1666;48.898;9.182;2023-04-07T15:21:45;4.93;;;2.30;;
3307;SDS011;1666;48.898;9.182;2023-04-07T15:24:15;6.55;;;2.80;;
3307;SDS011;1666;48.898;9.182;2023-04-07T15:26:50;5.22;;;3.00;;
3307;SDS011;1666;48.898;9.182;2023-04-07T15:29:20;5.05;;;2.70;;
3307;SDS011;1666;48.898;9.182;2023-04-07T15:31:50;7.35;;;2.95;;
3307;SDS011;1666;48.898;9.182;2023-04-07T15:34:20;4.70;;;2.70;;
3307;SDS011;1666;48.898;9.182;2023-04-07T15:36:50;4.70;;;2.42;;
3307;SDS011;1666;48.898;9.182;2023-04-07T15:39:20;3.47;;;2.30;;
3307;SDS011;1666;48.898;9.182;2023-04-07T15:41:52;4.90;;;2.33;;
3307;SDS011;1666;48.898;9.182;2023-04-07T15:44:22;4.65;;;2.13;;
3307;SDS011;1666;48.898;9.182;2023-04-07T15:46:52;2.28;;;2.08;;
3307;SDS011;1666;48.898;9.182;2023-04-07T15:49:22;3.88;;;2.40;;
3307;SDS011;1666;48.898;9.182;2023-04-07T15:51:52;4.60;;;2.88;;